aviador You're here:

KRCE Decoded Metar

CLARENCE E in OK, USA
Report Time2018-04-25 23:55:00
UTC Time2018-04-26 00:11:55
Flight Rules vfr VFR
Wind350° at 10 kt
W.Decomp.*RWY 35: 9.9 kt HW 1.2 kt LCW
W.Rank350° ranks 12
Current wind is below 350° avg. (10.0)
Visibility9999 m
Phenomena:N/A
Clouds:Few 030 Hf
Overcast 039 Hf
Expected CloudBase > 2,000 ft AGL from Temp-Dew spread
Ceiling3,900 ft
Temp11°C (ISA -1)
Dew Point06°C (72% RH)
AAT6.5°C
QNH1020 hPa
Density Alt1,093 ft
Elevation1,354 ft
Report Wrong Elevation
Raw Report
KRCE 252355Z AUTO 35010KT 10SM FEW030 OVC039 11/06 A3011 RMK
AO2=

Extra information for KRCE:More info

Metar Taf Metar & Taf Last 4 Metars F.Rules Stats Wind Profile Meteogram Temp Stats Airport Information Weather charts Add Link Nearby VenuesMetar ALERT Operation Metar Decoded Social comments

AIRNAV info for KRCE